createdAt,value
2022-12-18T00:01:23.904Z,86.73
2022-12-18T00:03:52.847Z,87.02
2022-12-18T00:06:21.317Z,86.86
2022-12-18T00:08:49.440Z,86.99
2022-12-18T00:11:19.605Z,86.66
2022-12-18T00:13:47.585Z,86.91
2022-12-18T00:16:19.472Z,86.42
2022-12-18T00:18:47.396Z,86.47
2022-12-18T00:21:16.855Z,86.86
2022-12-18T00:23:48.456Z,87.01
2022-12-18T00:26:18.780Z,86.80
2022-12-18T00:28:47.554Z,86.40
2022-12-18T00:31:19.395Z,86.68
2022-12-18T00:33:47.697Z,86.89
2022-12-18T00:36:20.625Z,86.31
2022-12-18T00:38:49.471Z,86.70
2022-12-18T00:41:40.434Z,86.75
2022-12-18T00:44:08.422Z,86.99
2022-12-18T00:46:37.630Z,86.77
2022-12-18T00:49:06.218Z,86.92
2022-12-18T00:51:34.386Z,86.82
2022-12-18T00:54:02.693Z,86.37
2022-12-18T00:56:30.617Z,86.32
2022-12-18T00:58:58.546Z,86.63
2022-12-18T01:01:26.618Z,86.54
2022-12-18T01:03:55.846Z,86.88
2022-12-18T01:06:24.417Z,86.90
2022-12-18T01:08:52.192Z,86.87
2022-12-18T01:11:21.968Z,86.66
2022-12-18T01:13:49.948Z,86.53
2022-12-18T01:16:19.848Z,86.42
2022-12-18T01:18:48.180Z,86.75
2022-12-18T01:21:18.204Z,86.59
2022-12-18T01:23:46.123Z,86.94
2022-12-18T01:26:16.155Z,86.53
2022-12-18T01:28:45.779Z,86.86
2022-12-18T01:31:15.659Z,86.32
2022-12-18T01:33:43.521Z,86.35
2022-12-18T01:36:20.145Z,86.63
2022-12-18T01:38:48.672Z,86.66
2022-12-18T01:41:18.529Z,86.49
2022-12-18T01:43:52.220Z,86.50
2022-12-18T01:46:21.808Z,86.54
2022-12-18T01:48:53.176Z,86.76
2022-12-18T01:51:23.441Z,86.78
2022-12-18T01:53:51.482Z,87.06
2022-12-18T01:56:21.872Z,86.71
2022-12-18T01:58:57.358Z,86.85
2022-12-18T02:01:26.255Z,86.94
2022-12-18T02:03:54.690Z,86.33
2022-12-18T02:06:30.696Z,86.44
2022-12-18T02:09:09.850Z,86.80
2022-12-18T02:11:48.396Z,86.83
2022-12-18T02:14:25.168Z,86.54
2022-12-18T02:17:03.093Z,86.99
2022-12-18T02:19:46.924Z,86.90
2022-12-18T02:22:31.787Z,86.32
2022-12-18T02:25:15.647Z,86.30
2022-12-18T02:27:48.532Z,86.77
2022-12-18T02:30:17.403Z,86.90
2022-12-18T02:32:51.556Z,86.49
2022-12-18T02:35:24.094Z,86.63
2022-12-18T02:37:56.649Z,86.63
2022-12-18T02:40:28.245Z,86.46
2022-12-18T02:42:57.676Z,86.23
2022-12-18T02:45:27.672Z,86.76
2022-12-18T02:47:56.015Z,86.45
2022-12-18T02:50:32.691Z,86.24
2022-12-18T02:53:12.218Z,86.25
2022-12-18T02:55:54.579Z,86.54
2022-12-18T02:58:32.715Z,86.55
2022-12-18T03:01:13.244Z,86.89
2022-12-18T03:03:45.790Z,86.67
2022-12-18T03:06:22.125Z,86.53
2022-12-18T03:08:56.350Z,86.22
2022-12-18T03:11:41.942Z,86.30
2022-12-18T03:14:13.536Z,86.26
2022-12-18T03:16:44.470Z,86.27
2022-12-18T03:19:17.399Z,86.60
2022-12-18T03:21:48.113Z,86.91
2022-12-18T03:24:19.330Z,86.85
2022-12-18T03:26:53.069Z,86.21
2022-12-18T03:29:27.310Z,86.46
2022-12-18T03:32:00.241Z,86.44
2022-12-18T03:34:33.062Z,86.83
2022-12-18T03:37:26.464Z,86.70
2022-12-18T03:39:54.503Z,86.79
2022-12-18T03:42:30.823Z,86.57
2022-12-18T03:45:12.494Z,86.31
2022-12-18T03:47:53.399Z,86.46
2022-12-18T03:50:27.248Z,86.36
2022-12-18T03:53:02.192Z,86.44
2022-12-18T03:55:35.257Z,86.38
2022-12-18T03:58:09.325Z,86.64
2022-12-18T04:00:54.266Z,86.28
2022-12-18T04:03:26.399Z,86.67
2022-12-18T04:05:57.636Z,86.58
2022-12-18T04:08:26.820Z,86.15
2022-12-18T04:11:03.510Z,86.75
2022-12-18T04:13:38.027Z,86.88
2022-12-18T04:19:05.736Z,86.53
2022-12-18T04:21:39.876Z,86.84
2022-12-18T04:24:12.184Z,86.88
2022-12-18T04:26:45.690Z,86.70
2022-12-18T04:29:24.744Z,86.02
2022-12-18T04:31:55.281Z,86.39
2022-12-18T04:34:24.891Z,86.73
2022-12-18T04:36:54.703Z,86.71
2022-12-18T04:39:23.931Z,86.25
2022-12-18T04:41:56.047Z,86.18
2022-12-18T04:44:26.920Z,86.69
2022-12-18T04:46:56.834Z,86.89
2022-12-18T04:49:25.242Z,86.56
2022-12-18T04:51:53.952Z,86.45
2022-12-18T04:54:22.182Z,86.71
2022-12-18T04:56:50.736Z,86.26
2022-12-18T04:59:18.894Z,86.75
2022-12-18T05:01:46.847Z,86.22
2022-12-18T05:04:16.198Z,86.55
2022-12-18T05:06:44.401Z,86.61
2022-12-18T05:09:12.332Z,86.25
2022-12-18T05:11:40.141Z,86.62
2022-12-18T05:14:07.991Z,86.22
2022-12-18T05:16:35.922Z,86.86
2022-12-18T05:19:03.719Z,86.63
2022-12-18T05:21:32.901Z,86.74
2022-12-18T05:24:00.672Z,86.20
2022-12-18T05:26:28.521Z,86.19
2022-12-18T05:28:56.352Z,86.82
2022-12-18T05:31:24.193Z,86.75
2022-12-18T05:33:52.065Z,86.17
2022-12-18T05:36:19.872Z,86.87
2022-12-18T05:38:49.066Z,86.03
2022-12-18T05:41:17.179Z,86.26
2022-12-18T05:43:44.989Z,86.36
2022-12-18T05:46:16.219Z,86.79
2022-12-18T05:48:44.636Z,86.39
2022-12-18T05:51:15.395Z,85.96
2022-12-18T05:53:44.390Z,86.81
2022-12-18T05:56:15.695Z,86.26
2022-12-18T05:58:43.915Z,85.88
2022-12-18T06:01:15.204Z,86.31
2022-12-18T06:03:43.515Z,86.23
2022-12-18T06:06:16.185Z,86.03
2022-12-18T06:08:46.473Z,86.39
2022-12-18T06:11:19.277Z,87.03
2022-12-18T06:13:46.940Z,86.26
2022-12-18T06:16:14.944Z,86.14
2022-12-18T06:18:42.810Z,86.55
2022-12-18T06:21:10.794Z,86.06
2022-12-18T06:23:39.179Z,86.68
2022-12-18T06:26:08.666Z,86.29
2022-12-18T06:28:38.187Z,86.08
2022-12-18T06:31:07.221Z,86.46
2022-12-18T06:33:35.103Z,86.42
2022-12-18T06:36:04.071Z,86.10
2022-12-18T06:38:33.168Z,86.62
2022-12-18T06:41:01.048Z,86.28
2022-12-18T06:43:28.975Z,86.31
2022-12-18T06:46:01.985Z,86.66
2022-12-18T06:48:29.828Z,86.75
2022-12-18T06:50:57.995Z,86.63
2022-12-18T06:53:25.859Z,86.47
2022-12-18T06:55:53.816Z,86.48
2022-12-18T06:58:25.695Z,86.50
2022-12-18T07:00:53.654Z,86.42
2022-12-18T07:03:22.852Z,86.71
2022-12-18T07:05:50.650Z,86.71
2022-12-18T07:08:18.444Z,86.34
2022-12-18T07:10:49.751Z,86.56
2022-12-18T07:13:19.589Z,85.89
2022-12-18T07:15:47.436Z,85.99
2022-12-18T07:18:15.295Z,86.59
2022-12-18T07:20:45.128Z,86.31
2022-12-18T07:23:13.923Z,86.70
2022-12-18T07:25:42.538Z,86.03
2022-12-18T07:28:15.632Z,86.61
2022-12-18T07:30:45.100Z,86.25
2022-12-18T07:33:12.911Z,86.36
2022-12-18T07:35:40.804Z,86.59
2022-12-18T07:38:09.965Z,86.32
2022-12-18T07:40:37.803Z,86.25
2022-12-18T07:43:05.610Z,86.10
2022-12-18T07:45:33.579Z,86.43
2022-12-18T07:48:01.426Z,86.14
2022-12-18T07:50:29.328Z,86.81
2022-12-18T07:52:57.166Z,87.14
2022-12-18T07:55:27.139Z,85.96
2022-12-18T07:58:00.663Z,86.02
2022-12-18T08:00:28.747Z,86.45
2022-12-18T08:02:56.633Z,86.83
2022-12-18T08:05:24.746Z,86.83
2022-12-18T08:07:52.569Z,86.11
2022-12-18T08:10:20.954Z,86.64
2022-12-18T08:12:52.722Z,85.78
2022-12-18T08:15:20.545Z,86.58
2022-12-18T08:17:48.369Z,86.12
2022-12-18T08:20:17.047Z,86.18
2022-12-18T08:22:44.871Z,86.80
2022-12-18T08:25:12.817Z,86.10
2022-12-18T08:27:40.615Z,86.04
2022-12-18T08:30:12.090Z,86.32
2022-12-18T08:32:39.911Z,86.55
2022-12-18T08:35:09.418Z,86.10
2022-12-18T08:37:37.901Z,86.63
2022-12-18T08:40:07.074Z,86.43
2022-12-18T08:42:52.482Z,86.13
2022-12-18T08:45:21.685Z,86.29
2022-12-18T08:47:49.546Z,86.67
2022-12-18T08:50:17.455Z,86.18
2022-12-18T08:52:45.441Z,86.16
2022-12-18T08:58:31.485Z,86.55
2022-12-18T09:01:03.923Z,86.42
2022-12-18T09:03:31.962Z,86.44
2022-12-18T09:06:00.481Z,86.43
2022-12-18T09:08:28.756Z,86.23
2022-12-18T09:10:56.672Z,86.52
2022-12-18T09:13:25.009Z,86.58
2022-12-18T09:15:55.022Z,86.38
2022-12-18T09:18:25.707Z,86.35
2022-12-18T09:20:54.090Z,86.68
2022-12-18T09:23:24.405Z,86.82
2022-12-18T09:25:52.231Z,86.52
2022-12-18T09:31:18.442Z,86.53
2022-12-18T09:33:47.796Z,86.27
2022-12-18T09:36:18.535Z,86.54
2022-12-18T09:38:46.788Z,86.33
2022-12-18T09:41:39.064Z,86.57
2022-12-18T09:44:15.800Z,86.44
2022-12-18T09:46:48.190Z,86.63
2022-12-18T09:49:22.493Z,86.55
2022-12-18T09:51:54.914Z,87.05
2022-12-18T09:54:24.501Z,86.74
2022-12-18T09:56:52.365Z,86.80
2022-12-18T09:59:25.999Z,86.37
2022-12-18T10:01:54.029Z,86.78
2022-12-18T10:04:23.439Z,86.90
2022-12-18T10:06:57.007Z,86.34
2022-12-18T10:09:33.010Z,86.72
2022-12-18T10:12:10.427Z,86.78
2022-12-18T10:14:45.178Z,86.96
2022-12-18T10:17:24.452Z,86.37
2022-12-18T10:19:57.722Z,87.09
2022-12-18T10:22:41.954Z,87.28
2022-12-18T10:25:20.655Z,86.76
2022-12-18T10:27:49.196Z,87.04
2022-12-18T10:30:20.001Z,86.83
2022-12-18T10:32:48.114Z,86.06
2022-12-18T10:35:21.781Z,87.03
2022-12-18T10:38:06.636Z,86.70
2022-12-18T10:40:36.385Z,86.87
2022-12-18T10:43:12.682Z,86.71
2022-12-18T10:45:43.270Z,86.76
2022-12-18T10:48:21.225Z,86.59
2022-12-18T10:53:43.563Z,86.48
2022-12-18T10:56:11.701Z,86.90
2022-12-18T10:58:41.221Z,86.61
2022-12-18T11:01:14.182Z,86.84
2022-12-18T11:03:44.222Z,86.75
2022-12-18T11:06:16.236Z,86.88
2022-12-18T11:08:46.291Z,87.00
2022-12-18T11:11:22.696Z,86.83
2022-12-18T11:14:01.246Z,86.73
2022-12-18T11:16:31.869Z,86.86
2022-12-18T11:19:26.311Z,86.96
2022-12-18T11:21:55.653Z,86.67
2022-12-18T11:24:30.200Z,86.96
2022-12-18T11:27:00.400Z,86.88
2022-12-18T11:29:34.755Z,86.98
2022-12-18T11:32:28.519Z,86.63
2022-12-18T11:35:04.155Z,87.02
2022-12-18T11:37:35.601Z,86.98
2022-12-18T11:40:11.502Z,87.01
2022-12-18T11:42:47.909Z,87.03
2022-12-18T11:45:39.346Z,87.00
2022-12-18T11:48:17.071Z,87.15
2022-12-18T11:50:50.659Z,86.94
2022-12-18T11:53:21.433Z,86.79
2022-12-18T11:56:05.144Z,87.06
2022-12-18T11:58:47.110Z,87.05
2022-12-18T12:01:36.511Z,87.05
2022-12-18T12:04:26.971Z,86.66
2022-12-18T12:07:04.636Z,87.25
2022-12-18T12:09:41.368Z,87.16
2022-12-18T12:12:25.949Z,86.92
2022-12-18T12:15:06.640Z,87.10
2022-12-18T12:17:40.916Z,87.25
2022-12-18T12:20:17.517Z,86.71
2022-12-18T12:22:54.564Z,87.05
2022-12-18T12:25:35.363Z,86.53
2022-12-18T12:28:17.439Z,86.62
2022-12-18T12:30:59.331Z,86.99
2022-12-18T12:33:39.585Z,86.92
2022-12-18T12:36:19.176Z,87.12
2022-12-18T12:38:52.497Z,86.82
2022-12-18T12:41:43.130Z,87.07
2022-12-18T12:44:19.059Z,87.10
2022-12-18T12:46:49.832Z,87.02
2022-12-18T12:49:22.406Z,86.65
2022-12-18T12:51:59.268Z,86.85
2022-12-18T12:54:29.512Z,86.81
2022-12-18T12:57:04.944Z,86.76
2022-12-18T12:59:42.641Z,86.56
2022-12-18T13:02:20.183Z,86.68
2022-12-18T13:04:54.638Z,87.04
2022-12-18T13:07:31.292Z,86.96
2022-12-18T13:10:34.556Z,86.81
2022-12-18T13:13:07.311Z,87.06
2022-12-18T13:16:07.323Z,86.92
2022-12-18T13:18:36.149Z,87.08
2022-12-18T13:21:14.067Z,87.08
2022-12-18T13:23:42.528Z,86.88
2022-12-18T13:26:36.784Z,86.52
2022-12-18T13:29:07.119Z,86.99
2022-12-18T13:32:01.432Z,87.04
2022-12-18T13:34:32.076Z,86.79
2022-12-18T13:37:34.027Z,86.44
2022-12-18T13:40:02.255Z,86.88
2022-12-18T13:43:00.585Z,86.78
2022-12-18T13:45:47.989Z,86.98
2022-12-18T13:48:25.694Z,86.64
2022-12-18T13:50:59.734Z,86.71
2022-12-18T13:53:32.048Z,86.73
2022-12-18T13:56:00.500Z,86.59
2022-12-18T13:58:28.414Z,86.62
2022-12-18T14:00:57.763Z,86.88
2022-12-18T14:03:28.195Z,86.88
2022-12-18T14:05:58.984Z,86.65
2022-12-18T14:08:32.900Z,86.87
2022-12-18T14:11:01.031Z,86.79
2022-12-18T14:13:31.304Z,86.65
2022-12-18T14:16:03.832Z,86.89
2022-12-18T14:18:40.995Z,86.80
2022-12-18T14:21:19.946Z,86.65
2022-12-18T14:23:47.889Z,86.63
2022-12-18T14:26:25.508Z,86.88
2022-12-18T14:28:54.815Z,86.49
2022-12-18T14:31:26.334Z,86.67
2022-12-18T14:33:55.127Z,86.29
2022-12-18T14:36:24.638Z,86.46
2022-12-18T14:38:54.719Z,86.21
2022-12-18T14:41:23.492Z,86.67
2022-12-18T14:43:53.579Z,86.50
2022-12-18T14:46:36.424Z,86.62
2022-12-18T14:49:06.715Z,86.59
2022-12-18T14:51:36.340Z,86.52
2022-12-18T14:54:08.997Z,86.68
2022-12-18T14:56:37.861Z,86.48
2022-12-18T14:59:07.977Z,86.25
2022-12-18T15:01:39.653Z,86.62
2022-12-18T15:04:27.525Z,86.78
2022-12-18T15:07:06.629Z,86.59
2022-12-18T15:09:34.591Z,86.35
2022-12-18T15:12:03.735Z,86.58
2022-12-18T15:14:40.997Z,86.45
2022-12-18T15:17:20.520Z,86.31
2022-12-18T15:19:50.893Z,86.54
2022-12-18T15:22:28.937Z,86.42
2022-12-18T15:24:59.874Z,86.38
2022-12-18T15:27:36.349Z,86.63
2022-12-18T15:30:28.452Z,86.55
2022-12-18T15:33:27.098Z,86.19
2022-12-18T15:35:59.039Z,86.29
2022-12-18T15:38:27.595Z,86.69
2022-12-18T15:40:55.954Z,86.37
2022-12-18T15:43:38.020Z,86.35
2022-12-18T15:46:08.898Z,86.37
2022-12-18T15:48:42.102Z,86.47
2022-12-18T15:51:16.306Z,86.58
2022-12-18T15:53:44.927Z,86.20
2022-12-18T15:56:31.268Z,86.44
2022-12-18T15:58:59.588Z,86.27
2022-12-18T16:01:29.589Z,86.20
2022-12-18T16:03:59.674Z,86.57
2022-12-18T16:06:36.352Z,86.13
2022-12-18T16:09:13.125Z,86.43
2022-12-18T16:11:47.082Z,86.31
2022-12-18T16:14:20.120Z,86.23
2022-12-18T16:16:49.428Z,86.29
2022-12-18T16:19:19.043Z,86.34
2022-12-18T16:21:48.184Z,86.31
2022-12-18T16:24:17.965Z,86.23
2022-12-18T16:26:46.390Z,86.52
2022-12-18T16:29:14.320Z,86.25
2022-12-18T16:31:42.719Z,86.08
2022-12-18T16:34:15.246Z,86.31
2022-12-18T16:36:44.602Z,86.42
2022-12-18T16:39:12.533Z,86.14
2022-12-18T16:41:40.392Z,86.31
2022-12-18T16:44:08.383Z,86.10
2022-12-18T16:46:36.276Z,86.10
2022-12-18T16:49:04.490Z,86.42
2022-12-18T16:51:35.581Z,86.36
2022-12-18T16:54:10.177Z,86.15
2022-12-18T16:56:39.848Z,85.97
2022-12-18T16:59:07.904Z,86.24
2022-12-18T17:01:35.919Z,86.02
2022-12-18T17:04:06.986Z,86.10
2022-12-18T17:06:37.024Z,86.14
2022-12-18T17:09:08.562Z,86.34
2022-12-18T17:11:37.024Z,86.12
2022-12-18T17:14:08.396Z,86.29
2022-12-18T17:16:36.865Z,86.04
2022-12-18T17:19:05.747Z,86.32
2022-12-18T17:21:33.740Z,86.16
2022-12-18T17:24:02.158Z,85.96
2022-12-18T17:26:31.751Z,86.30
2022-12-18T17:29:00.242Z,86.09
2022-12-18T17:31:30.481Z,86.23
2022-12-18T17:33:59.167Z,86.07
2022-12-18T17:36:29.292Z,86.44
2022-12-18T17:38:59.409Z,85.86
2022-12-18T17:41:29.092Z,86.12
2022-12-18T17:44:00.688Z,86.11
2022-12-18T17:46:30.667Z,86.13
2022-12-18T17:48:59.488Z,85.78
2022-12-18T17:51:28.480Z,85.84
2022-12-18T17:53:56.551Z,85.81
2022-12-18T17:56:25.027Z,86.09
2022-12-18T17:58:54.022Z,86.01
2022-12-18T18:01:25.429Z,86.08
2022-12-18T18:03:54.129Z,86.03
2022-12-18T18:06:22.924Z,85.86
2022-12-18T18:08:51.255Z,86.07
2022-12-18T18:11:39.008Z,85.80
2022-12-18T18:14:12.160Z,85.77
2022-12-18T18:16:43.866Z,85.89
2022-12-18T18:19:15.326Z,85.88
2022-12-18T18:21:50.076Z,85.94
2022-12-18T18:24:21.293Z,85.88
2022-12-18T18:26:49.197Z,85.89
2022-12-18T18:29:19.717Z,85.99
2022-12-18T18:31:49.604Z,85.61
2022-12-18T18:34:20.244Z,85.99
2022-12-18T18:36:48.189Z,85.98
2022-12-18T18:39:16.136Z,85.70
2022-12-18T18:41:46.477Z,85.74
2022-12-18T18:44:16.620Z,85.74
2022-12-18T18:46:44.853Z,86.16
2022-12-18T18:49:14.652Z,85.70
2022-12-18T18:51:42.583Z,86.00
2022-12-18T18:54:11.073Z,85.58
2022-12-18T18:57:18.680Z,85.90
2022-12-18T18:59:32.043Z,86.13
2022-12-18T19:02:04.124Z,85.67
2022-12-18T19:04:34.663Z,85.76
2022-12-18T19:07:02.681Z,85.80
2022-12-18T19:09:31.250Z,86.06
2022-12-18T19:12:16.824Z,85.60
2022-12-18T19:14:45.252Z,85.68
2022-12-18T19:17:13.031Z,85.68
2022-12-18T19:19:42.650Z,85.86
2022-12-18T19:22:11.434Z,85.44
2022-12-18T19:24:39.746Z,85.84
2022-12-18T19:27:07.591Z,85.69
2022-12-18T19:29:35.458Z,85.98
2022-12-18T19:32:05.344Z,85.48
2022-12-18T19:34:33.227Z,85.85
2022-12-18T19:37:02.880Z,85.79
2022-12-18T19:39:30.819Z,85.88
2022-12-18T19:41:58.595Z,85.78
2022-12-18T19:44:26.819Z,85.93
2022-12-18T19:46:54.675Z,85.39
2022-12-18T19:49:22.583Z,85.41
2022-12-18T19:51:50.701Z,85.53
2022-12-18T19:54:20.057Z,85.50
2022-12-18T19:56:47.873Z,85.54
2022-12-18T19:59:15.878Z,85.65
2022-12-18T20:01:43.876Z,85.58
2022-12-18T20:04:11.969Z,85.40
2022-12-18T20:06:49.440Z,85.71
2022-12-18T20:09:18.646Z,85.61
2022-12-18T20:11:48.700Z,85.66
2022-12-18T20:14:22.673Z,85.49
2022-12-18T20:16:52.160Z,85.15
2022-12-18T20:19:20.799Z,85.52
2022-12-18T20:21:49.010Z,85.58
2022-12-18T20:24:17.025Z,85.38
2022-12-18T20:26:44.936Z,85.83
2022-12-18T20:29:14.155Z,85.91
2022-12-18T20:31:42.220Z,85.51
2022-12-18T20:34:10.052Z,85.71
2022-12-18T20:36:38.678Z,85.76
2022-12-18T20:39:08.832Z,85.73
2022-12-18T20:41:39.120Z,85.47
2022-12-18T20:44:18.994Z,85.44
2022-12-18T20:47:00.252Z,85.20
2022-12-18T20:49:31.329Z,85.45
2022-12-18T20:51:59.411Z,85.75
2022-12-18T20:54:28.312Z,85.47
2022-12-18T20:56:59.435Z,85.10
2022-12-18T20:59:27.644Z,85.32
2022-12-18T21:01:55.856Z,85.39
2022-12-18T21:04:26.020Z,85.60
2022-12-18T21:06:57.902Z,85.69
2022-12-18T21:09:37.621Z,85.24
2022-12-18T21:12:44.057Z,85.51
2022-12-18T21:15:28.495Z,85.65
2022-12-18T21:17:56.691Z,85.17
2022-12-18T21:20:25.979Z,85.78
2022-12-18T21:22:54.004Z,85.66
2022-12-18T21:25:24.212Z,85.33
2022-12-18T21:27:52.094Z,85.22
2022-12-18T21:30:20.084Z,85.30
2022-12-18T21:32:48.014Z,85.14
2022-12-18T21:35:16.037Z,85.29
2022-12-18T21:37:46.601Z,85.07
2022-12-18T21:40:14.976Z,85.60
2022-12-18T21:43:00.187Z,85.12
2022-12-18T21:45:27.983Z,85.08
2022-12-18T21:47:55.741Z,85.43
2022-12-18T21:50:23.634Z,85.48
2022-12-18T21:52:52.888Z,85.08
2022-12-18T21:58:12.726Z,84.98
2022-12-18T22:00:43.444Z,84.99
2022-12-18T22:03:18.289Z,85.01
2022-12-18T22:05:47.135Z,85.02
2022-12-18T22:08:25.401Z,85.10
2022-12-18T22:10:53.337Z,85.28
2022-12-18T22:13:21.394Z,85.28
2022-12-18T22:15:49.494Z,85.04
2022-12-18T22:18:17.627Z,85.39
2022-12-18T22:20:45.513Z,85.20
2022-12-18T22:23:13.343Z,85.53
2022-12-18T22:25:42.561Z,84.92
2022-12-18T22:28:33.366Z,85.44
2022-12-18T22:31:01.224Z,85.34
2022-12-18T22:33:29.372Z,85.04
2022-12-18T22:35:57.403Z,85.18
2022-12-18T22:38:25.184Z,85.00
2022-12-18T22:40:55.891Z,85.29
2022-12-18T22:43:23.848Z,84.68
2022-12-18T22:45:51.662Z,84.93
2022-12-18T22:48:19.829Z,85.18
2022-12-18T22:50:47.628Z,85.17
2022-12-18T22:53:17.040Z,85.23
2022-12-18T22:55:44.871Z,85.36
2022-12-18T22:58:17.635Z,85.13
2022-12-18T23:00:45.424Z,85.13
2022-12-18T23:06:35.448Z,85.28
2022-12-18T23:09:03.365Z,85.04
2022-12-18T23:11:56.532Z,85.36
2022-12-18T23:14:24.380Z,85.16
2022-12-18T23:16:55.042Z,85.20
2022-12-18T23:19:23.777Z,85.08
2022-12-18T23:21:54.839Z,84.88
2022-12-18T23:24:25.753Z,85.39
2022-12-18T23:26:53.579Z,84.78
2022-12-18T23:29:21.738Z,84.93
2022-12-18T23:31:49.578Z,84.85
2022-12-18T23:34:17.929Z,85.03
2022-12-18T23:36:46.943Z,84.99
2022-12-18T23:39:28.886Z,84.93
2022-12-18T23:41:58.279Z,85.24
2022-12-18T23:44:26.204Z,84.88
2022-12-18T23:46:54.086Z,85.03
2022-12-18T23:49:22.293Z,85.22
2022-12-18T23:51:50.146Z,84.74
2022-12-18T23:54:21.113Z,85.35
2022-12-18T23:56:59.528Z,85.28
2022-12-18T23:59:27.550Z,84.96
